createdAt,value
2019-05-26T00:00:31.653Z,1009.22
2019-05-26T00:01:31.690Z,1009.22
2019-05-26T00:02:31.631Z,1009.22
2019-05-26T00:03:31.622Z,1009.23
2019-05-26T00:04:31.610Z,1009.24
2019-05-26T00:05:31.597Z,1009.23
2019-05-26T00:06:31.650Z,1009.24
2019-05-26T00:07:31.621Z,1009.18
2019-05-26T00:08:31.563Z,1009.19
2019-05-26T00:09:31.553Z,1009.16
2019-05-26T00:10:31.539Z,1009.19
2019-05-26T00:11:31.590Z,1009.23
2019-05-26T00:12:31.523Z,1009.24
2019-05-26T00:13:31.509Z,1009.24
2019-05-26T00:14:31.494Z,1009.27
2019-05-26T00:15:31.495Z,1009.21
2019-05-26T00:16:31.478Z,1009.19
2019-05-26T00:17:31.501Z,1009.19
2019-05-26T00:18:33.485Z,1009.20
2019-05-26T00:19:31.436Z,1009.18
2019-05-26T00:20:31.470Z,1009.20
2019-05-26T00:21:31.414Z,1009.18
2019-05-26T00:22:31.402Z,1009.17
2019-05-26T00:23:31.435Z,1009.20
2019-05-26T00:24:31.389Z,1009.20
2019-05-26T00:25:31.370Z,1009.21
2019-05-26T00:26:31.363Z,1009.18
2019-05-26T00:27:31.350Z,1009.17
2019-05-26T00:28:31.337Z,1009.16
2019-05-26T00:29:31.369Z,1009.18
2019-05-26T00:30:31.311Z,1009.16
2019-05-26T00:31:31.301Z,1009.16
2019-05-26T00:32:31.291Z,1009.17
2019-05-26T00:33:31.278Z,1009.16
2019-05-26T00:34:31.270Z,1009.19
2019-05-26T00:35:31.304Z,1009.14
2019-05-26T00:36:31.245Z,1009.23
2019-05-26T00:37:47.698Z,1009.20
2019-05-26T00:38:32.222Z,1009.20
2019-05-26T00:39:31.210Z,1009.18
2019-05-26T00:40:31.242Z,1009.21
2019-05-26T00:41:31.186Z,1009.16
2019-05-26T00:42:31.176Z,1009.19
2019-05-26T00:43:31.165Z,1009.18
2019-05-26T00:44:31.153Z,1009.13
2019-05-26T00:45:31.183Z,1009.20
2019-05-26T00:46:31.129Z,1009.18
2019-05-26T00:47:31.119Z,1009.18
2019-05-26T00:48:31.148Z,1009.18
2019-05-26T00:49:31.166Z,1009.15
2019-05-26T00:50:31.085Z,1009.14
2019-05-26T00:51:31.115Z,1009.11
2019-05-26T00:52:31.062Z,1009.14
2019-05-26T00:53:31.056Z,1009.09
2019-05-26T00:54:31.038Z,1009.08
2019-05-26T00:55:31.028Z,1009.04
2019-05-26T00:56:31.017Z,1009.05
2019-05-26T00:57:31.049Z,1009.06
2019-05-26T00:58:30.994Z,1009.07
2019-05-26T00:59:30.982Z,1009.09
2019-05-26T01:00:30.971Z,1009.04
2019-05-26T01:01:31.003Z,1009.00
2019-05-26T01:02:30.953Z,1009.00
2019-05-26T01:03:30.939Z,1009.04
2019-05-26T01:04:30.925Z,1008.98
2019-05-26T01:05:30.917Z,1009.00
2019-05-26T01:06:30.944Z,1008.94
2019-05-26T01:07:30.898Z,1008.95
2019-05-26T01:08:30.883Z,1008.96
2019-05-26T01:09:30.868Z,1008.94
2019-05-26T01:10:30.857Z,1008.96
2019-05-26T01:11:30.884Z,1008.99
2019-05-26T01:12:30.836Z,1008.95
2019-05-26T01:13:30.823Z,1008.95
2019-05-26T01:14:30.812Z,1008.98
2019-05-26T01:15:30.800Z,1008.98
2019-05-26T01:16:30.833Z,1008.99
2019-05-26T01:17:30.779Z,1008.95
2019-05-26T01:18:30.766Z,1008.93
2019-05-26T01:19:30.756Z,1008.97
2019-05-26T01:20:30.743Z,1008.94
2019-05-26T01:21:30.774Z,1008.97
2019-05-26T01:22:30.725Z,1008.97
2019-05-26T01:23:30.712Z,1009.00
2019-05-26T01:24:30.701Z,1008.99
2019-05-26T01:25:30.731Z,1008.93
2019-05-26T01:26:30.685Z,1008.93
2019-05-26T01:27:30.672Z,1008.96
2019-05-26T01:28:30.694Z,1008.97
2019-05-26T01:29:30.644Z,1008.95
2019-05-26T01:30:30.674Z,1008.96
2019-05-26T01:31:30.624Z,1008.98
2019-05-26T01:32:30.609Z,1008.99
2019-05-26T01:33:30.599Z,1008.99
2019-05-26T01:34:30.585Z,1009.02
2019-05-26T01:35:30.574Z,1008.99
2019-05-26T01:36:30.603Z,1008.99
2019-05-26T01:37:30.552Z,1009.04
2019-05-26T01:38:30.541Z,1009.03
2019-05-26T01:39:30.528Z,1009.01
2019-05-26T01:40:30.518Z,1009.01
2019-05-26T01:41:30.550Z,1009.10
2019-05-26T01:42:30.497Z,1009.10
2019-05-26T01:43:30.525Z,1009.10
2019-05-26T01:44:30.473Z,1009.08
2019-05-26T01:45:30.569Z,1009.09
2019-05-26T01:46:30.452Z,1009.06
2019-05-26T01:47:30.496Z,1009.07
2019-05-26T01:48:30.428Z,1009.08
2019-05-26T01:49:30.415Z,1009.04
2019-05-26T01:50:30.411Z,1009.06
2019-05-26T01:51:30.399Z,1009.02
2019-05-26T01:52:30.391Z,1009.06
2019-05-26T01:53:30.413Z,1009.06
2019-05-26T01:54:30.399Z,1009.08
2019-05-26T01:55:30.392Z,1009.07
2019-05-26T01:56:30.380Z,1009.10
2019-05-26T01:57:30.325Z,1009.05
2019-05-26T01:58:30.331Z,1009.13
2019-05-26T01:59:30.304Z,1009.08
2019-05-26T02:00:30.293Z,1009.09
2019-05-26T02:01:30.315Z,1009.11
2019-05-26T02:02:30.271Z,1009.07
2019-05-26T02:03:30.309Z,1009.14
2019-05-26T02:04:30.249Z,1009.12
2019-05-26T02:05:30.239Z,1009.11
2019-05-26T02:06:30.225Z,1009.07
2019-05-26T02:07:30.248Z,1009.09
2019-05-26T02:08:38.788Z,1009.12
2019-05-26T02:09:31.191Z,1009.13
2019-05-26T02:10:30.180Z,1009.09
2019-05-26T02:11:30.171Z,1009.12
2019-05-26T02:12:30.188Z,1009.11
2019-05-26T02:13:30.156Z,1009.12
2019-05-26T02:14:30.135Z,1009.05
2019-05-26T02:15:30.161Z,1009.08
2019-05-26T02:16:30.112Z,1009.11
2019-05-26T02:17:30.102Z,1009.08
2019-05-26T02:18:30.123Z,1009.08
2019-05-26T02:19:30.077Z,1009.14
2019-05-26T02:20:30.065Z,1009.16
2019-05-26T02:21:30.089Z,1009.17
2019-05-26T02:22:30.045Z,1009.15
2019-05-26T02:23:30.065Z,1009.17
2019-05-26T02:24:30.027Z,1009.15
2019-05-26T02:25:30.009Z,1009.16
2019-05-26T02:26:29.998Z,1009.19
2019-05-26T02:27:30.023Z,1009.21
2019-05-26T02:28:30.013Z,1009.19
2019-05-26T02:29:29.968Z,1009.17
2019-05-26T02:30:29.993Z,1009.18
2019-05-26T02:31:29.943Z,1009.16
2019-05-26T02:32:29.932Z,1009.17
2019-05-26T02:33:29.921Z,1009.21
2019-05-26T02:34:29.925Z,1009.15
2019-05-26T02:35:29.942Z,1009.16
2019-05-26T02:36:29.889Z,1009.13
2019-05-26T02:37:29.881Z,1009.11
2019-05-26T02:38:29.870Z,1009.09
2019-05-26T02:39:29.855Z,1009.11
2019-05-26T02:40:29.841Z,1009.12
2019-05-26T02:41:29.867Z,1009.10
2019-05-26T02:42:29.819Z,1009.10
2019-05-26T02:43:29.813Z,1009.08
2019-05-26T02:44:29.813Z,1009.09
2019-05-26T02:45:29.816Z,1009.10
2019-05-26T02:46:29.794Z,1009.10
2019-05-26T02:47:29.805Z,1009.10
2019-05-26T02:48:29.754Z,1009.08
2019-05-26T02:49:29.740Z,1009.09
2019-05-26T02:50:29.730Z,1009.06
2019-05-26T02:51:29.720Z,1009.08
2019-05-26T02:52:29.814Z,1009.04
2019-05-26T02:53:29.725Z,1009.06
2019-05-26T02:54:29.697Z,1009.03
2019-05-26T02:55:29.677Z,1009.01
2019-05-26T02:56:29.661Z,1009.06
2019-05-26T02:57:29.651Z,1009.02
2019-05-26T02:58:29.672Z,1009.05
2019-05-26T02:59:29.634Z,1009.04
2019-05-26T03:00:29.630Z,1009.05
2019-05-26T03:01:29.640Z,1009.06
2019-05-26T03:02:29.601Z,1008.99
2019-05-26T03:03:29.615Z,1009.00
2019-05-26T03:04:29.604Z,1009.05
2019-05-26T03:05:29.561Z,1009.01
2019-05-26T03:06:29.552Z,1009.01
2019-05-26T03:07:29.541Z,1008.97
2019-05-26T03:08:29.527Z,1009.00
2019-05-26T03:09:29.518Z,1009.02
2019-05-26T03:10:29.533Z,1009.00
2019-05-26T03:11:29.523Z,1009.00
2019-05-26T03:12:29.484Z,1009.02
2019-05-26T03:13:29.512Z,1009.01
2019-05-26T03:14:29.461Z,1008.99
2019-05-26T03:15:29.447Z,1009.05
2019-05-26T03:16:29.437Z,1009.02
2019-05-26T03:17:29.424Z,1008.92
2019-05-26T03:18:29.414Z,1008.94
2019-05-26T03:19:29.437Z,1008.92
2019-05-26T03:20:29.443Z,1008.94
2019-05-26T03:21:29.391Z,1009.01
2019-05-26T03:22:29.398Z,1008.97
2019-05-26T03:23:29.357Z,1008.98
2019-05-26T03:24:29.364Z,1009.00
2019-05-26T03:25:29.374Z,1008.95
2019-05-26T03:26:29.321Z,1008.98
2019-05-26T03:27:29.342Z,1008.96
2019-05-26T03:28:29.310Z,1008.91
2019-05-26T03:29:29.291Z,1008.94
2019-05-26T03:30:29.317Z,1008.92
2019-05-26T03:31:29.279Z,1008.92
2019-05-26T03:32:29.255Z,1008.93
2019-05-26T03:33:29.242Z,1008.90
2019-05-26T03:34:29.236Z,1008.90
2019-05-26T03:35:29.232Z,1008.95
2019-05-26T03:36:29.238Z,1008.88
2019-05-26T03:37:29.232Z,1008.92
2019-05-26T03:38:29.188Z,1008.94
2019-05-26T03:39:43.414Z,1008.92
2019-05-26T03:40:30.165Z,1008.95
2019-05-26T03:41:29.155Z,1008.90
2019-05-26T03:42:29.173Z,1008.95
2019-05-26T03:43:29.133Z,1008.92
2019-05-26T03:44:29.117Z,1008.92
2019-05-26T03:45:29.112Z,1008.93
2019-05-26T03:46:29.127Z,1008.92
2019-05-26T03:47:29.086Z,1008.95
2019-05-26T03:48:29.075Z,1008.94
2019-05-26T03:49:29.065Z,1008.92
2019-05-26T03:50:29.057Z,1008.94
2019-05-26T03:51:29.070Z,1008.87
2019-05-26T03:52:29.025Z,1008.87
2019-05-26T03:53:29.047Z,1008.86
2019-05-26T03:54:29.007Z,1008.82
2019-05-26T03:55:29.024Z,1008.88
2019-05-26T03:56:28.988Z,1008.84
2019-05-26T03:57:28.979Z,1008.84
2019-05-26T03:58:28.962Z,1008.82
2019-05-26T03:59:28.962Z,1008.85
2019-05-26T04:00:28.972Z,1008.86
2019-05-26T04:01:28.926Z,1008.85
2019-05-26T04:02:28.926Z,1008.89
2019-05-26T04:03:28.935Z,1008.86
2019-05-26T04:04:28.893Z,1008.90
2019-05-26T04:05:28.892Z,1008.88
2019-05-26T04:06:28.869Z,1008.88
2019-05-26T04:07:28.860Z,1008.85
2019-05-26T04:08:28.865Z,1008.92
2019-05-26T04:09:28.869Z,1008.86
2019-05-26T04:10:28.826Z,1008.88
2019-05-26T04:11:28.853Z,1008.89
2019-05-26T04:12:28.804Z,1008.93
2019-05-26T04:13:28.792Z,1008.91
2019-05-26T04:14:28.784Z,1008.95
2019-05-26T04:15:28.805Z,1008.92
2019-05-26T04:16:28.757Z,1008.87
2019-05-26T04:17:28.752Z,1008.93
2019-05-26T04:18:28.767Z,1008.89
2019-05-26T04:19:28.755Z,1008.92
2019-05-26T04:20:28.729Z,1008.89
2019-05-26T04:21:28.737Z,1008.92
2019-05-26T04:22:28.723Z,1008.86
2019-05-26T04:23:28.686Z,1008.94
2019-05-26T04:24:28.668Z,1008.92
2019-05-26T04:25:28.663Z,1008.92
2019-05-26T04:26:28.677Z,1008.91
2019-05-26T04:27:28.635Z,1008.93
2019-05-26T04:28:28.621Z,1008.95
2019-05-26T04:29:28.623Z,1008.94
2019-05-26T04:30:28.600Z,1008.92
2019-05-26T04:31:28.621Z,1008.93
2019-05-26T04:32:28.578Z,1008.93
2019-05-26T04:33:28.567Z,1008.88
2019-05-26T04:34:28.587Z,1008.90
2019-05-26T04:35:28.543Z,1008.85
2019-05-26T04:36:28.531Z,1008.87
2019-05-26T04:37:28.532Z,1008.84
2019-05-26T04:38:28.511Z,1008.87
2019-05-26T04:39:28.536Z,1008.85
2019-05-26T04:40:28.497Z,1008.89
2019-05-26T04:41:28.474Z,1008.83
2019-05-26T04:42:28.605Z,1008.84
2019-05-26T04:43:28.462Z,1008.79
2019-05-26T04:44:28.478Z,1008.82
2019-05-26T04:45:28.473Z,1008.78
2019-05-26T04:46:28.419Z,1008.78
2019-05-26T04:47:28.407Z,1008.84
2019-05-26T04:48:28.395Z,1008.80
2019-05-26T04:49:28.384Z,1008.83
2019-05-26T04:50:28.373Z,1008.83
2019-05-26T04:51:28.404Z,1008.82
2019-05-26T04:52:28.353Z,1008.85
2019-05-26T04:53:28.336Z,1008.88
2019-05-26T04:54:28.359Z,1008.87
2019-05-26T04:55:28.315Z,1008.91
2019-05-26T04:56:28.309Z,1008.90
2019-05-26T04:57:28.295Z,1008.91
2019-05-26T04:58:28.313Z,1008.85
2019-05-26T04:59:28.302Z,1008.82
2019-05-26T05:00:28.263Z,1008.82
2019-05-26T05:01:28.252Z,1008.80
2019-05-26T05:02:28.236Z,1008.85
2019-05-26T05:03:28.259Z,1008.79
2019-05-26T05:04:28.226Z,1008.82
2019-05-26T05:05:28.202Z,1008.86
2019-05-26T05:06:28.195Z,1008.86
2019-05-26T05:07:28.759Z,1008.84
2019-05-26T05:08:28.255Z,1008.85
2019-05-26T05:09:28.192Z,1008.85
2019-05-26T05:10:41.338Z,1008.87
2019-05-26T05:11:29.131Z,1008.80
2019-05-26T05:12:28.121Z,1008.82
2019-05-26T05:13:28.114Z,1008.79
2019-05-26T05:14:28.100Z,1008.83
2019-05-26T05:15:28.130Z,1008.78
2019-05-26T05:16:28.108Z,1008.83
2019-05-26T05:17:28.072Z,1008.80
2019-05-26T05:18:28.094Z,1008.82
2019-05-26T05:19:28.042Z,1008.81
2019-05-26T05:20:28.060Z,1008.82
2019-05-26T05:21:28.023Z,1008.84
2019-05-26T05:22:28.040Z,1008.89
2019-05-26T05:23:28.005Z,1008.85
2019-05-26T05:24:27.985Z,1008.85
2019-05-26T05:25:28.013Z,1008.85
2019-05-26T05:26:27.961Z,1008.85
2019-05-26T05:27:27.990Z,1008.83
2019-05-26T05:28:27.977Z,1008.80
2019-05-26T05:29:27.929Z,1008.77
2019-05-26T05:30:27.920Z,1008.79
2019-05-26T05:31:27.911Z,1008.71
2019-05-26T05:32:27.897Z,1008.74
2019-05-26T05:33:27.883Z,1008.71
2019-05-26T05:34:27.919Z,1008.71
2019-05-26T05:35:27.860Z,1008.71
2019-05-26T05:36:27.849Z,1008.72
2019-05-26T05:37:27.838Z,1008.74
2019-05-26T05:38:27.827Z,1008.76
2019-05-26T05:39:27.812Z,1008.70
2019-05-26T05:40:27.831Z,1008.70
2019-05-26T05:41:27.793Z,1008.73
2019-05-26T05:42:27.784Z,1008.75
2019-05-26T05:43:27.804Z,1008.70
2019-05-26T05:44:27.761Z,1008.67
2019-05-26T05:45:27.747Z,1008.70
2019-05-26T05:46:27.738Z,1008.68
2019-05-26T05:47:27.726Z,1008.66
2019-05-26T05:48:27.711Z,1008.72
2019-05-26T05:49:27.745Z,1008.66
2019-05-26T05:50:27.693Z,1008.68
2019-05-26T05:51:27.683Z,1008.65
2019-05-26T05:52:27.667Z,1008.67
2019-05-26T05:53:27.658Z,1008.68
2019-05-26T05:54:27.649Z,1008.71
2019-05-26T05:55:27.672Z,1008.68
2019-05-26T05:56:27.630Z,1008.71
2019-05-26T05:57:27.617Z,1008.67
2019-05-26T05:58:27.603Z,1008.68
2019-05-26T05:59:27.592Z,1008.65
2019-05-26T06:00:27.611Z,1008.65
2019-05-26T06:01:27.569Z,1008.62
2019-05-26T06:02:27.557Z,1008.67
2019-05-26T06:03:27.581Z,1008.63
2019-05-26T06:04:27.536Z,1008.67
2019-05-26T06:05:27.522Z,1008.64
2019-05-26T06:06:27.512Z,1008.61
2019-05-26T06:07:27.500Z,1008.59
2019-05-26T06:08:27.523Z,1008.54
2019-05-26T06:09:27.521Z,1008.53
2019-05-26T06:10:27.465Z,1008.53
2019-05-26T06:11:27.455Z,1008.57
2019-05-26T06:12:27.443Z,1008.56
2019-05-26T06:13:27.433Z,1008.56
2019-05-26T06:14:27.483Z,1008.54
2019-05-26T06:15:27.444Z,1008.53
2019-05-26T06:16:27.397Z,1008.57
2019-05-26T06:17:27.397Z,1008.59
2019-05-26T06:18:27.383Z,1008.56
2019-05-26T06:19:27.398Z,1008.56
2019-05-26T06:20:27.357Z,1008.53
2019-05-26T06:21:27.341Z,1008.51
2019-05-26T06:22:27.330Z,1008.48
2019-05-26T06:23:27.370Z,1008.47
2019-05-26T06:24:27.309Z,1008.46
2019-05-26T06:25:27.347Z,1008.46
2019-05-26T06:26:27.286Z,1008.43
2019-05-26T06:27:27.275Z,1008.44
2019-05-26T06:28:27.269Z,1008.43
2019-05-26T06:29:27.288Z,1008.45
2019-05-26T06:30:27.242Z,1008.44
2019-05-26T06:31:27.231Z,1008.43
2019-05-26T06:32:27.257Z,1008.44
2019-05-26T06:33:27.209Z,1008.44
2019-05-26T06:34:27.199Z,1008.40
2019-05-26T06:35:27.186Z,1008.42
2019-05-26T06:36:27.178Z,1008.42
2019-05-26T06:37:27.171Z,1008.41
2019-05-26T06:38:27.187Z,1008.44
2019-05-26T06:39:27.178Z,1008.45
2019-05-26T06:40:27.133Z,1008.47
2019-05-26T06:41:33.502Z,1008.46
2019-05-26T06:42:28.116Z,1008.41
2019-05-26T06:43:27.128Z,1008.41
2019-05-26T06:44:27.100Z,1008.39
2019-05-26T06:45:27.085Z,1008.40
2019-05-26T06:46:27.062Z,1008.40
2019-05-26T06:47:27.054Z,1008.38
2019-05-26T06:48:27.285Z,1008.38
2019-05-26T06:49:27.066Z,1008.42
2019-05-26T06:50:27.022Z,1008.40
2019-05-26T06:51:27.009Z,1008.35
2019-05-26T06:52:26.996Z,1008.40
2019-05-26T06:53:26.986Z,1008.38
2019-05-26T06:54:26.973Z,1008.39
2019-05-26T06:55:26.997Z,1008.40
2019-05-26T06:56:26.954Z,1008.33
2019-05-26T06:57:26.977Z,1008.37
2019-05-26T06:58:26.933Z,1008.36
2019-05-26T06:59:26.918Z,1008.32
2019-05-26T07:00:26.904Z,1008.35
2019-05-26T07:01:26.923Z,1008.33
2019-05-26T07:02:26.883Z,1008.36
2019-05-26T07:03:26.907Z,1008.29
2019-05-26T07:04:26.861Z,1008.32
2019-05-26T07:05:26.853Z,1008.28
2019-05-26T07:06:26.885Z,1008.33
2019-05-26T07:07:26.827Z,1008.30
2019-05-26T07:08:26.818Z,1008.28
2019-05-26T07:09:26.870Z,1008.29
2019-05-26T07:10:26.807Z,1008.24
2019-05-26T07:11:26.782Z,1008.30
2019-05-26T07:12:26.805Z,1008.30
2019-05-26T07:13:26.767Z,1008.32
2019-05-26T07:14:26.751Z,1008.31
2019-05-26T07:15:26.741Z,1008.25
2019-05-26T07:16:37.616Z,1008.31
2019-05-26T07:17:27.713Z,1008.31
2019-05-26T07:18:26.713Z,1008.31
2019-05-26T07:19:26.695Z,1008.31
2019-05-26T07:20:26.686Z,1008.31
2019-05-26T07:21:26.671Z,1008.26
2019-05-26T07:22:26.692Z,1008.23
2019-05-26T07:23:26.649Z,1008.18
2019-05-26T07:24:29.314Z,1008.23
2019-05-26T07:25:26.625Z,1008.19
2019-05-26T07:26:26.615Z,1008.22
2019-05-26T07:27:26.605Z,1008.20
2019-05-26T07:28:26.592Z,1008.21
2019-05-26T07:29:26.580Z,1008.23
2019-05-26T07:30:26.604Z,1008.24
2019-05-26T07:31:26.565Z,1008.22
2019-05-26T07:32:26.557Z,1008.21
2019-05-26T07:33:26.560Z,1008.20
2019-05-26T07:34:26.558Z,1008.24
2019-05-26T07:35:26.515Z,1008.23
2019-05-26T07:36:26.531Z,1008.25
2019-05-26T07:37:26.491Z,1008.20
2019-05-26T07:38:26.554Z,1008.20
2019-05-26T07:39:26.498Z,1008.23
2019-05-26T07:40:26.461Z,1008.21
2019-05-26T07:41:26.446Z,1008.20
2019-05-26T07:42:26.435Z,1008.23
2019-05-26T07:43:28.137Z,1008.22
2019-05-26T07:44:26.451Z,1008.21
2019-05-26T07:45:26.402Z,1008.22
2019-05-26T07:46:26.392Z,1008.19
2019-05-26T07:47:26.409Z,1008.17
2019-05-26T07:48:26.371Z,1008.17
2019-05-26T07:49:26.356Z,1008.14
2019-05-26T07:50:26.345Z,1008.17
2019-05-26T07:51:26.338Z,1008.16
2019-05-26T07:52:26.360Z,1008.17
2019-05-26T07:53:26.312Z,1008.13
2019-05-26T07:54:26.326Z,1008.13
2019-05-26T07:55:26.293Z,1008.03
2019-05-26T07:56:26.278Z,1008.07
2019-05-26T07:57:26.301Z,1008.07
2019-05-26T07:58:26.256Z,1008.10
2019-05-26T07:59:26.243Z,1008.05
2019-05-26T08:00:26.266Z,1008.00
2019-05-26T08:01:35.110Z,1008.05
2019-05-26T08:02:27.213Z,1008.10
2019-05-26T08:03:26.199Z,1008.14
2019-05-26T08:04:26.194Z,1008.16
2019-05-26T08:05:26.209Z,1008.06
2019-05-26T08:06:26.171Z,1008.07
2019-05-26T08:07:26.190Z,1008.04
2019-05-26T08:08:26.145Z,1008.01
2019-05-26T08:09:26.133Z,1008.01
2019-05-26T08:10:26.125Z,1008.10
2019-05-26T08:11:26.111Z,1008.02
2019-05-26T08:12:30.436Z,1008.05
2019-05-26T08:13:26.088Z,1008.02
2019-05-26T08:14:26.082Z,1008.00
2019-05-26T08:15:26.099Z,1007.97
2019-05-26T08:16:26.053Z,1008.00
2019-05-26T08:17:26.053Z,1007.91
2019-05-26T08:18:26.066Z,1007.93
2019-05-26T08:19:26.021Z,1007.96
2019-05-26T08:20:26.010Z,1007.91
2019-05-26T08:21:26.000Z,1007.88
2019-05-26T08:22:26.024Z,1007.90
2019-05-26T08:23:26.007Z,1007.81
2019-05-26T08:24:25.970Z,1007.86
2019-05-26T08:25:26.000Z,1007.82
2019-05-26T08:26:25.948Z,1007.84
2019-05-26T08:27:25.940Z,1007.82
2019-05-26T08:28:25.952Z,1007.87
2019-05-26T08:29:25.909Z,1007.88
2019-05-26T08:30:25.899Z,1007.85
2019-05-26T08:31:25.888Z,1007.88
2019-05-26T08:32:25.919Z,1007.88
2019-05-26T08:33:25.864Z,1007.85
2019-05-26T08:34:25.853Z,1007.80
2019-05-26T08:35:25.841Z,1007.77
2019-05-26T08:36:25.831Z,1007.73
2019-05-26T08:37:25.833Z,1007.72
2019-05-26T08:38:25.882Z,1007.69
2019-05-26T08:39:25.797Z,1007.66
2019-05-26T08:40:25.787Z,1007.60
2019-05-26T08:41:25.791Z,1007.66
2019-05-26T08:42:28.873Z,1007.64
2019-05-26T08:43:26.785Z,1007.62
2019-05-26T08:44:25.744Z,1007.61
2019-05-26T08:45:25.732Z,1007.69
2019-05-26T08:46:25.725Z,1007.62
2019-05-26T08:47:25.738Z,1007.67
2019-05-26T08:48:25.703Z,1007.68
2019-05-26T08:49:25.691Z,1007.66
2019-05-26T08:50:25.682Z,1007.75
2019-05-26T08:51:25.706Z,1007.67
2019-05-26T08:52:25.655Z,1007.70
2019-05-26T08:53:25.644Z,1007.72
2019-05-26T08:54:25.637Z,1007.70
2019-05-26T08:55:25.659Z,1007.73
2019-05-26T08:56:25.609Z,1007.69
2019-05-26T08:57:25.598Z,1007.66
2019-05-26T08:58:28.696Z,1007.72
2019-05-26T08:59:25.576Z,1007.69
2019-05-26T09:00:25.567Z,1007.59
2019-05-26T09:01:25.585Z,1007.59
2019-05-26T09:02:25.580Z,1007.58
2019-05-26T09:03:25.533Z,1007.63
2019-05-26T09:04:25.526Z,1007.50
2019-05-26T09:05:25.546Z,1007.63
2019-05-26T09:06:25.504Z,1007.64
2019-05-26T09:07:25.523Z,1007.61
2019-05-26T09:08:25.479Z,1007.58
2019-05-26T09:09:25.467Z,1007.53
2019-05-26T09:10:25.469Z,1007.52
2019-05-26T09:11:25.491Z,1007.49
2019-05-26T09:12:25.445Z,1007.47
2019-05-26T09:13:25.424Z,1007.55
2019-05-26T09:14:25.656Z,1007.54
2019-05-26T09:15:25.417Z,1007.50
2019-05-26T09:16:25.395Z,1007.46
2019-05-26T09:17:25.411Z,1007.44
2019-05-26T09:18:25.369Z,1007.45
2019-05-26T09:19:25.359Z,1007.46
2019-05-26T09:20:25.353Z,1007.42
2019-05-26T09:21:25.338Z,1007.43
2019-05-26T09:22:25.365Z,1007.45
2019-05-26T09:23:25.322Z,1007.44
2019-05-26T09:24:25.352Z,1007.34
2019-05-26T09:25:25.295Z,1007.38
2019-05-26T09:26:25.295Z,1007.35
2019-05-26T09:27:25.279Z,1007.34
2019-05-26T09:28:25.298Z,1007.31
2019-05-26T09:29:25.294Z,1007.36
2019-05-26T09:30:25.247Z,1007.37
2019-05-26T09:31:25.226Z,1007.32
2019-05-26T09:32:25.220Z,1007.18
2019-05-26T09:33:25.245Z,1007.24
2019-05-26T09:34:25.290Z,1007.30
2019-05-26T09:35:25.183Z,1007.25
2019-05-26T09:36:25.171Z,1007.29
2019-05-26T09:37:25.193Z,1007.30
2019-05-26T09:38:25.153Z,1007.21
2019-05-26T09:39:25.163Z,1007.19
2019-05-26T09:40:25.127Z,1007.17
2019-05-26T09:41:25.151Z,1007.16
2019-05-26T09:42:25.134Z,1007.19
2019-05-26T09:43:25.093Z,1007.21
2019-05-26T09:44:25.094Z,1007.23
2019-05-26T09:45:25.074Z,1007.27
2019-05-26T09:46:25.070Z,1007.27
2019-05-26T09:47:25.082Z,1007.17
2019-05-26T09:48:25.081Z,1007.31
2019-05-26T09:49:25.037Z,1007.23
2019-05-26T09:50:25.036Z,1007.29
2019-05-26T09:51:25.008Z,1007.28
2019-05-26T09:52:24.993Z,1007.29
2019-05-26T09:53:24.981Z,1007.31
2019-05-26T09:54:25.093Z,1007.21
2019-05-26T09:55:25.000Z,1007.22
2019-05-26T09:56:24.951Z,1007.32
2019-05-26T09:57:24.986Z,1007.20
2019-05-26T09:58:25.336Z,1007.20
2019-05-26T09:59:24.913Z,1007.30
2019-05-26T10:00:24.902Z,1007.10
2019-05-26T10:01:24.972Z,1007.30
2019-05-26T10:02:24.931Z,1007.26
2019-05-26T10:03:24.886Z,1007.24
2019-05-26T10:04:24.867Z,1007.20
2019-05-26T10:05:24.852Z,1007.16
2019-05-26T10:06:24.839Z,1007.18
2019-05-26T10:07:24.828Z,1007.17
2019-05-26T10:08:24.847Z,1007.30
2019-05-26T10:09:24.806Z,1007.25
2019-05-26T10:10:24.797Z,1007.19
2019-05-26T10:11:24.781Z,1007.25
2019-05-26T10:12:24.801Z,1007.22
2019-05-26T10:13:31.696Z,1007.19
2019-05-26T10:14:25.751Z,1007.18
2019-05-26T10:15:24.736Z,1007.07
2019-05-26T10:16:24.723Z,1007.05
2019-05-26T10:17:24.747Z,1007.06
2019-05-26T10:18:24.761Z,1007.07
2019-05-26T10:19:24.694Z,1007.00
2019-05-26T10:20:24.685Z,1007.08
2019-05-26T10:21:24.667Z,1007.08
2019-05-26T10:22:24.655Z,1007.06
2019-05-26T10:23:24.676Z,1007.05
2019-05-26T10:24:24.671Z,1007.06
2019-05-26T10:25:24.667Z,1007.00
2019-05-26T10:26:24.610Z,1007.03
2019-05-26T10:27:24.631Z,1007.03
2019-05-26T10:28:24.588Z,1007.06
2019-05-26T10:29:24.578Z,1007.05
2019-05-26T10:30:24.614Z,1007.04
2019-05-26T10:31:24.568Z,1006.95
2019-05-26T10:32:25.489Z,1007.01
2019-05-26T10:33:24.535Z,1007.07
2019-05-26T10:34:24.525Z,1007.02
2019-05-26T10:35:24.550Z,1006.91
2019-05-26T10:36:24.505Z,1006.96
2019-05-26T10:37:24.751Z,1006.90
2019-05-26T10:38:24.474Z,1006.93
2019-05-26T10:39:24.468Z,1006.90
2019-05-26T10:40:24.453Z,1006.98
2019-05-26T10:41:24.442Z,1006.93
2019-05-26T10:42:24.466Z,1006.89
2019-05-26T10:43:24.424Z,1006.80
2019-05-26T10:44:24.821Z,1006.86
2019-05-26T10:45:24.423Z,1006.88
2019-05-26T10:46:24.390Z,1006.90
2019-05-26T10:47:24.380Z,1006.92
2019-05-26T10:48:24.377Z,1006.85
2019-05-26T10:49:24.354Z,1006.85
2019-05-26T10:50:24.399Z,1006.85
2019-05-26T10:51:24.340Z,1006.95
2019-05-26T10:52:24.334Z,1006.91
2019-05-26T10:53:24.312Z,1006.95
2019-05-26T10:54:24.310Z,1006.95
2019-05-26T10:55:24.296Z,1006.91
2019-05-26T10:56:24.312Z,1006.89
2019-05-26T10:57:24.269Z,1006.88
2019-05-26T10:58:24.257Z,1006.80
2019-05-26T10:59:24.682Z,1006.87
2019-05-26T11:00:24.265Z,1006.83
2019-05-26T11:01:24.223Z,1006.80
2019-05-26T11:02:24.247Z,1006.83
2019-05-26T11:03:24.201Z,1006.84
2019-05-26T11:04:24.228Z,1006.73
2019-05-26T11:05:24.211Z,1006.64
2019-05-26T11:06:24.200Z,1006.70
2019-05-26T11:07:26.908Z,1006.70
2019-05-26T11:08:24.146Z,1006.72
2019-05-26T11:09:24.140Z,1006.63
2019-05-26T11:10:24.125Z,1006.67
2019-05-26T11:11:24.147Z,1006.63
2019-05-26T11:12:24.105Z,1006.62
2019-05-26T11:13:24.089Z,1006.68
2019-05-26T11:14:24.081Z,1006.64
2019-05-26T11:15:24.070Z,1006.64
2019-05-26T11:16:24.094Z,1006.63
2019-05-26T11:17:24.054Z,1006.63
2019-05-26T11:18:24.034Z,1006.58
2019-05-26T11:19:24.027Z,1006.63
2019-05-26T11:20:24.024Z,1006.58
2019-05-26T11:21:24.045Z,1006.58
2019-05-26T11:22:24.030Z,1006.57
2019-05-26T11:23:23.995Z,1006.63
2019-05-26T11:24:24.010Z,1006.62
2019-05-26T11:25:23.960Z,1006.58
2019-05-26T11:26:23.983Z,1006.57
2019-05-26T11:27:23.937Z,1006.51
2019-05-26T11:28:23.960Z,1006.52
2019-05-26T11:29:23.922Z,1006.52
2019-05-26T11:30:23.904Z,1006.50
2019-05-26T11:31:23.932Z,1006.52
2019-05-26T11:32:23.894Z,1006.52
2019-05-26T11:33:23.904Z,1006.53
2019-05-26T11:34:23.864Z,1006.49
2019-05-26T11:35:23.858Z,1006.50
2019-05-26T11:36:23.847Z,1006.49
2019-05-26T11:37:23.858Z,1006.45
2019-05-26T11:38:23.912Z,1006.38
2019-05-26T11:39:24.808Z,1006.46
2019-05-26T11:40:23.836Z,1006.43
2019-05-26T11:41:23.782Z,1006.43
2019-05-26T11:42:23.773Z,1006.45
2019-05-26T11:43:23.768Z,1006.43
2019-05-26T11:44:23.752Z,1006.41
2019-05-26T11:45:23.741Z,1006.43
2019-05-26T11:46:23.759Z,1006.43
2019-05-26T11:47:23.751Z,1006.41
2019-05-26T11:48:23.824Z,1006.45
2019-05-26T11:49:23.693Z,1006.46
2019-05-26T11:50:23.682Z,1006.49
2019-05-26T11:51:23.709Z,1006.45
2019-05-26T11:52:23.664Z,1006.31
2019-05-26T11:53:23.655Z,1006.31
2019-05-26T11:54:23.644Z,1006.29
2019-05-26T11:55:23.671Z,1006.30
2019-05-26T11:56:23.620Z,1006.34
2019-05-26T11:57:23.610Z,1006.34
2019-05-26T11:58:23.632Z,1006.33
2019-05-26T11:59:23.592Z,1006.25
2019-05-26T12:00:23.682Z,1006.28
2019-05-26T12:01:23.632Z,1006.27
2019-05-26T12:02:23.549Z,1006.28
2019-05-26T12:03:23.573Z,1006.25
2019-05-26T12:04:23.533Z,1006.26
2019-05-26T12:05:23.519Z,1006.23